createdAt,value
2023-02-17T00:01:34.502Z,109.90
2023-02-17T00:04:01.696Z,76.87
2023-02-17T00:06:29.396Z,77.80
2023-02-17T00:08:56.712Z,62.63
2023-02-17T00:11:24.079Z,66.47
2023-02-17T00:13:53.178Z,66.20
2023-02-17T00:16:25.254Z,74.80
2023-02-17T00:18:55.895Z,75.87
2023-02-17T00:21:23.711Z,75.03
2023-02-17T00:23:50.911Z,79.93
2023-02-17T00:26:18.124Z,76.47
2023-02-17T00:28:45.427Z,68.17
2023-02-17T00:31:14.653Z,77.30
2023-02-17T00:33:41.797Z,62.57
2023-02-17T00:36:10.028Z,60.53
2023-02-17T00:38:37.184Z,69.07
2023-02-17T00:41:04.332Z,65.63
2023-02-17T00:43:31.480Z,75.57
2023-02-17T00:45:58.630Z,68.63
2023-02-17T00:48:25.743Z,71.23
2023-02-17T00:50:52.861Z,60.60
2023-02-17T00:53:20.027Z,55.17
2023-02-17T00:55:47.141Z,56.67
2023-02-17T00:58:14.343Z,57.63
2023-02-17T01:00:41.491Z,52.60
2023-02-17T01:03:08.613Z,53.17
2023-02-17T01:05:35.788Z,57.77
2023-02-17T01:08:02.912Z,53.70
2023-02-17T01:10:30.022Z,52.90
2023-02-17T01:12:57.137Z,48.90
2023-02-17T01:15:24.260Z,51.80
2023-02-17T01:17:51.374Z,52.47
2023-02-17T01:20:18.589Z,48.93
2023-02-17T01:22:45.726Z,47.60
2023-02-17T01:25:12.846Z,50.03
2023-02-17T01:27:40.140Z,55.10
2023-02-17T01:30:07.675Z,50.87
2023-02-17T01:32:34.761Z,45.97
2023-02-17T01:35:01.872Z,45.33
2023-02-17T01:37:28.997Z,48.50
2023-02-17T01:39:56.139Z,52.87
2023-02-17T01:42:23.252Z,58.27
2023-02-17T01:45:09.160Z,64.00
2023-02-17T01:47:36.244Z,57.57
2023-02-17T01:50:03.334Z,63.50
2023-02-17T01:52:30.484Z,70.23
2023-02-17T01:54:59.031Z,61.20
2023-02-17T01:57:26.667Z,63.50
2023-02-17T01:59:53.818Z,61.93
2023-02-17T02:02:20.997Z,71.23
2023-02-17T02:04:48.654Z,62.47
2023-02-17T02:07:17.844Z,59.87
2023-02-17T02:09:47.133Z,63.63
2023-02-17T02:12:33.200Z,83.17
2023-02-17T02:15:10.186Z,73.33
2023-02-17T02:17:37.326Z,75.83
2023-02-17T02:20:23.293Z,77.00
2023-02-17T02:22:50.406Z,90.30
2023-02-17T02:25:31.405Z,90.20
2023-02-17T02:28:07.654Z,77.90
2023-02-17T02:30:40.644Z,73.70
2023-02-17T02:33:07.826Z,72.47
2023-02-17T02:35:44.943Z,72.70
2023-02-17T02:38:18.069Z,64.03
2023-02-17T02:40:48.795Z,70.13
2023-02-17T02:43:15.971Z,64.00
2023-02-17T02:45:43.125Z,63.63
2023-02-17T02:48:10.330Z,55.17
2023-02-17T02:50:48.134Z,59.17
2023-02-17T02:53:21.330Z,54.77
2023-02-17T02:56:10.451Z,52.17
2023-02-17T02:58:48.875Z,49.90
2023-02-17T03:01:18.611Z,48.00
2023-02-17T03:03:45.783Z,47.40
2023-02-17T03:06:16.520Z,43.90
2023-02-17T03:08:46.442Z,55.33
2023-02-17T03:11:13.584Z,55.77
2023-02-17T03:13:41.084Z,63.87
2023-02-17T03:16:08.704Z,55.33
2023-02-17T03:18:36.383Z,54.50
2023-02-17T03:21:06.957Z,55.70
2023-02-17T03:23:34.115Z,56.47
2023-02-17T03:26:01.219Z,55.17
2023-02-17T03:28:28.444Z,53.07
2023-02-17T03:30:55.579Z,51.20
2023-02-17T03:33:22.664Z,53.27
2023-02-17T03:35:49.758Z,62.73
2023-02-17T03:38:16.907Z,61.67
2023-02-17T03:40:44.064Z,55.40
2023-02-17T03:43:11.180Z,50.13
2023-02-17T03:45:38.435Z,50.73
2023-02-17T03:48:05.599Z,52.50
2023-02-17T03:50:32.701Z,52.53
2023-02-17T03:52:59.824Z,53.67
2023-02-17T03:55:26.927Z,47.53
2023-02-17T03:57:54.047Z,53.33
2023-02-17T04:00:21.833Z,54.47
2023-02-17T04:02:48.923Z,54.67
2023-02-17T04:05:16.088Z,53.73
2023-02-17T04:07:43.327Z,63.47
2023-02-17T04:10:10.591Z,60.40
2023-02-17T04:12:37.800Z,54.67
2023-02-17T04:15:05.021Z,67.67
2023-02-17T04:17:32.128Z,62.17
2023-02-17T04:19:59.231Z,74.80
2023-02-17T04:22:26.385Z,73.73
2023-02-17T04:24:53.485Z,56.13
2023-02-17T04:27:20.615Z,127.57
2023-02-17T04:29:47.735Z,95.77
2023-02-17T04:32:14.869Z,77.03
2023-02-17T04:34:41.959Z,79.00
2023-02-17T04:37:09.093Z,70.73
2023-02-17T04:39:36.195Z,89.23
2023-02-17T04:42:03.320Z,117.27
2023-02-17T04:44:30.440Z,146.80
2023-02-17T04:46:57.541Z,193.90
2023-02-17T04:49:24.665Z,133.93
2023-02-17T04:51:51.882Z,104.87
2023-02-17T04:54:19.007Z,103.50
2023-02-17T04:56:46.096Z,110.33
2023-02-17T04:59:13.247Z,109.43
2023-02-17T05:01:40.377Z,106.33
2023-02-17T05:04:07.491Z,94.33
2023-02-17T05:06:34.638Z,96.30
2023-02-17T05:09:01.789Z,111.10
2023-02-17T05:11:28.906Z,110.00
2023-02-17T05:13:56.035Z,152.43
2023-02-17T05:16:23.210Z,194.90
2023-02-17T05:18:50.433Z,256.57
2023-02-17T05:21:17.617Z,244.53
2023-02-17T05:23:44.703Z,182.97
2023-02-17T05:26:11.931Z,162.73
2023-02-17T05:28:39.161Z,145.70
2023-02-17T05:31:06.760Z,83.73
2023-02-17T05:33:34.023Z,127.77
2023-02-17T05:36:05.245Z,96.63
2023-02-17T05:38:32.575Z,304.13
2023-02-17T05:40:59.667Z,419.47
2023-02-17T05:43:26.815Z,318.27
2023-02-17T05:45:53.978Z,237.87
2023-02-17T05:48:21.151Z,494.47
2023-02-17T05:50:48.407Z,619.13
2023-02-17T05:53:15.539Z,647.03
2023-02-17T05:55:42.832Z,712.23
2023-02-17T05:58:09.974Z,562.03
2023-02-17T06:00:37.264Z,620.27
2023-02-17T06:03:04.437Z,554.63
2023-02-17T06:08:16.333Z,398.87
2023-02-17T06:10:43.519Z,320.27
2023-02-17T06:13:10.679Z,245.50
2023-02-17T06:15:37.946Z,197.87
2023-02-17T06:18:05.267Z,175.27
2023-02-17T06:20:32.414Z,184.17
2023-02-17T06:22:59.534Z,193.73
2023-02-17T06:25:26.701Z,206.17
2023-02-17T06:27:54.154Z,142.67
2023-02-17T06:30:21.552Z,166.13
2023-02-17T06:32:48.728Z,248.37
2023-02-17T06:35:16.053Z,291.33
2023-02-17T06:37:43.349Z,219.87
2023-02-17T06:40:10.858Z,98.40
2023-02-17T06:42:37.989Z,97.70
2023-02-17T06:45:06.164Z,77.43
2023-02-17T06:47:33.711Z,77.30
2023-02-17T06:50:00.836Z,93.03
2023-02-17T06:52:27.982Z,92.30
2023-02-17T06:54:55.139Z,94.70
2023-02-17T06:57:22.397Z,105.80
2023-02-17T06:59:49.516Z,122.53
2023-02-17T07:02:16.806Z,125.70
2023-02-17T07:04:43.979Z,130.30
2023-02-17T07:07:11.252Z,98.67
2023-02-17T07:09:38.832Z,89.70
2023-02-17T07:12:06.248Z,110.67
2023-02-17T07:14:35.028Z,97.53
2023-02-17T07:17:03.159Z,105.03
2023-02-17T07:19:31.737Z,112.93
2023-02-17T07:22:00.556Z,140.37
2023-02-17T07:24:29.059Z,113.90
2023-02-17T07:26:56.284Z,73.40
2023-02-17T07:29:23.649Z,62.23
2023-02-17T07:31:50.884Z,64.20
2023-02-17T07:34:18.084Z,63.60
2023-02-17T07:36:45.204Z,55.33
2023-02-17T07:39:12.376Z,50.73
2023-02-17T07:41:39.491Z,51.30
2023-02-17T07:44:06.597Z,46.87
2023-02-17T07:46:33.732Z,46.77
2023-02-17T07:49:00.836Z,43.07
2023-02-17T07:51:28.000Z,37.47
2023-02-17T07:53:55.147Z,34.57
2023-02-17T07:56:22.708Z,37.53
2023-02-17T07:58:49.982Z,46.93
2023-02-17T08:01:21.256Z,35.30
2023-02-17T08:03:48.612Z,26.33
2023-02-17T08:06:17.028Z,21.00
2023-02-17T08:09:03.118Z,21.92
2023-02-17T08:11:49.958Z,22.10
2023-02-17T08:14:17.236Z,23.00
2023-02-17T08:16:44.470Z,22.98
2023-02-17T08:19:11.653Z,22.48
2023-02-17T08:21:38.788Z,19.63
2023-02-17T08:24:05.987Z,23.13
2023-02-17T08:26:33.116Z,21.52
2023-02-17T08:29:00.296Z,20.88
2023-02-17T08:31:28.586Z,22.13
2023-02-17T08:33:55.916Z,20.35
2023-02-17T08:36:26.201Z,21.63
2023-02-17T08:38:53.663Z,21.48
2023-02-17T08:41:23.862Z,19.95
2023-02-17T08:43:51.247Z,19.85
2023-02-17T08:46:18.854Z,19.42
2023-02-17T08:48:46.008Z,18.00
2023-02-17T08:51:14.362Z,20.90
2023-02-17T08:53:41.567Z,15.82
2023-02-17T08:56:08.994Z,17.15
2023-02-17T08:58:36.467Z,13.02
2023-02-17T09:01:03.795Z,13.18
2023-02-17T09:03:30.998Z,12.95
2023-02-17T09:05:58.229Z,13.98
2023-02-17T09:08:25.556Z,13.75
2023-02-17T09:10:52.798Z,11.70
2023-02-17T09:13:20.125Z,13.20
2023-02-17T09:15:47.314Z,13.63
2023-02-17T09:18:14.505Z,11.13
2023-02-17T09:20:41.760Z,12.82
2023-02-17T09:23:08.902Z,11.15
2023-02-17T09:25:36.040Z,11.13
2023-02-17T09:28:03.198Z,11.13
2023-02-17T09:30:30.982Z,12.93
2023-02-17T09:32:58.743Z,13.27
2023-02-17T09:35:25.921Z,12.68
2023-02-17T09:37:53.099Z,16.40
2023-02-17T09:40:21.699Z,13.82
2023-02-17T09:42:48.883Z,16.23
2023-02-17T09:45:20.441Z,15.73
2023-02-17T09:47:48.755Z,17.60
2023-02-17T09:50:36.592Z,13.70
2023-02-17T09:53:30.089Z,18.23
2023-02-17T09:55:57.717Z,19.48
2023-02-17T09:58:26.824Z,20.75
2023-02-17T10:00:55.367Z,18.20
2023-02-17T10:03:41.508Z,15.05
2023-02-17T10:06:16.327Z,12.82
2023-02-17T10:08:46.690Z,15.57
2023-02-17T10:11:31.084Z,17.67
2023-02-17T10:14:00.015Z,13.10
2023-02-17T10:16:32.058Z,13.80
2023-02-17T10:19:05.511Z,12.88
2023-02-17T10:21:33.890Z,12.73
2023-02-17T10:24:01.008Z,16.15
2023-02-17T10:26:30.946Z,15.35
2023-02-17T10:29:07.866Z,15.65
2023-02-17T10:31:38.409Z,16.48
2023-02-17T10:34:06.259Z,23.42
2023-02-17T10:36:39.663Z,17.40
2023-02-17T10:39:13.677Z,14.55
2023-02-17T10:41:40.859Z,14.95
2023-02-17T10:44:09.638Z,12.32
2023-02-17T10:46:36.856Z,18.63
2023-02-17T10:49:06.311Z,14.93
2023-02-17T10:51:34.368Z,15.95
2023-02-17T10:54:04.181Z,14.07
2023-02-17T10:56:41.039Z,15.25
2023-02-17T10:59:09.551Z,14.95
2023-02-17T11:01:37.819Z,12.35
2023-02-17T11:04:06.343Z,9.95
2023-02-17T11:06:33.717Z,13.65
2023-02-17T11:09:09.385Z,10.95
2023-02-17T11:11:36.810Z,8.68
2023-02-17T11:14:09.851Z,9.43
2023-02-17T11:16:40.246Z,10.50
2023-02-17T11:19:07.927Z,9.10
2023-02-17T11:21:36.034Z,12.45
2023-02-17T11:24:06.752Z,10.13
2023-02-17T11:26:35.132Z,13.68
2023-02-17T11:29:33.189Z,11.13
2023-02-17T11:32:04.840Z,27.30
2023-02-17T11:34:36.175Z,6.78
2023-02-17T11:37:09.184Z,19.60
2023-02-17T11:39:39.592Z,18.23
2023-02-17T11:42:16.866Z,8.98
2023-02-17T11:44:44.146Z,10.07
2023-02-17T11:47:14.276Z,9.02
2023-02-17T11:49:47.259Z,9.55
2023-02-17T11:52:26.386Z,10.38
2023-02-17T11:55:22.642Z,9.13
2023-02-17T11:58:01.357Z,8.43
2023-02-17T12:00:33.387Z,6.95
2023-02-17T12:03:13.427Z,8.48
2023-02-17T12:05:59.433Z,7.53
2023-02-17T12:08:27.374Z,8.23
2023-02-17T12:11:18.510Z,7.40
2023-02-17T12:13:51.695Z,10.45
2023-02-17T12:16:30.883Z,10.75
2023-02-17T12:19:02.962Z,5.95
2023-02-17T12:21:34.314Z,9.98
2023-02-17T12:24:20.354Z,8.10
2023-02-17T12:27:01.531Z,6.32
2023-02-17T12:29:41.381Z,4.28
2023-02-17T12:32:31.641Z,6.03
2023-02-17T12:35:00.428Z,3.97
2023-02-17T12:37:32.151Z,4.50
2023-02-17T12:40:03.611Z,4.40
2023-02-17T12:42:37.786Z,5.85
2023-02-17T12:45:06.205Z,4.47
2023-02-17T12:47:36.287Z,6.55
2023-02-17T12:50:07.581Z,6.00
2023-02-17T12:52:37.463Z,3.90
2023-02-17T12:55:05.984Z,4.22
2023-02-17T12:57:39.402Z,4.00
2023-02-17T13:00:20.886Z,6.70
2023-02-17T13:02:48.287Z,4.38
2023-02-17T13:05:23.241Z,6.03
2023-02-17T13:08:10.667Z,6.18
2023-02-17T13:10:39.421Z,6.75
2023-02-17T13:13:07.903Z,6.13
2023-02-17T13:15:36.417Z,5.22
2023-02-17T13:18:12.988Z,4.97
2023-02-17T13:20:45.865Z,5.85
2023-02-17T13:23:14.050Z,7.28
2023-02-17T13:25:41.280Z,7.35
2023-02-17T13:28:18.310Z,5.97
2023-02-17T13:30:45.821Z,6.03
2023-02-17T13:33:22.248Z,5.68
2023-02-17T13:35:49.492Z,14.38
2023-02-17T13:38:29.930Z,6.60
2023-02-17T13:41:00.838Z,15.38
2023-02-17T13:43:28.910Z,8.40
2023-02-17T13:46:02.937Z,13.18
2023-02-17T13:48:31.007Z,11.63
2023-02-17T13:50:58.837Z,7.85
2023-02-17T13:53:27.289Z,10.45
2023-02-17T13:55:55.086Z,6.65
2023-02-17T13:58:23.157Z,7.40
2023-02-17T14:00:50.381Z,6.38
2023-02-17T14:03:20.540Z,5.90
2023-02-17T14:05:48.038Z,6.93
2023-02-17T14:08:15.198Z,5.35
2023-02-17T14:10:42.348Z,6.18
2023-02-17T14:13:12.525Z,4.68
2023-02-17T14:15:49.263Z,7.45
2023-02-17T14:18:17.216Z,4.28
2023-02-17T14:20:44.320Z,6.45
2023-02-17T14:23:12.483Z,4.03
2023-02-17T14:25:40.929Z,4.47
2023-02-17T14:28:20.933Z,5.95
2023-02-17T14:30:48.320Z,5.10
2023-02-17T14:33:16.191Z,5.10
2023-02-17T14:35:52.441Z,10.20
2023-02-17T14:38:32.029Z,4.55
2023-02-17T14:41:01.058Z,4.68
2023-02-17T14:43:28.195Z,6.05
2023-02-17T14:45:55.318Z,4.13
2023-02-17T14:48:22.538Z,6.40
2023-02-17T14:50:49.710Z,3.83
2023-02-17T14:53:29.688Z,3.80
2023-02-17T14:55:59.847Z,4.78
2023-02-17T14:58:27.201Z,8.65
2023-02-17T15:00:54.402Z,5.53
2023-02-17T15:03:21.572Z,5.90
2023-02-17T15:05:48.771Z,5.03
2023-02-17T15:08:16.718Z,8.35
2023-02-17T15:10:44.035Z,7.57
2023-02-17T15:13:13.137Z,6.05
2023-02-17T15:15:44.471Z,4.30
2023-02-17T15:18:12.304Z,4.45
2023-02-17T15:20:39.422Z,33.25
2023-02-17T15:23:10.118Z,19.10
2023-02-17T15:25:37.217Z,40.55
2023-02-17T15:28:04.358Z,10.48
2023-02-17T15:30:31.593Z,9.30
2023-02-17T15:32:58.765Z,7.53
2023-02-17T15:35:26.826Z,17.23
2023-02-17T15:37:54.108Z,13.70
2023-02-17T15:40:22.403Z,13.45
2023-02-17T15:43:03.394Z,15.10
2023-02-17T15:45:30.947Z,12.68
2023-02-17T15:48:07.676Z,36.20
2023-02-17T15:50:34.840Z,12.15
2023-02-17T15:53:02.050Z,18.17
2023-02-17T15:55:29.408Z,24.35
2023-02-17T15:57:59.914Z,34.45
2023-02-17T16:00:28.518Z,88.70
2023-02-17T16:02:55.767Z,30.77
2023-02-17T16:05:24.011Z,25.00
2023-02-17T16:07:51.195Z,57.58
2023-02-17T16:10:19.457Z,46.35
2023-02-17T16:12:46.938Z,45.97
2023-02-17T16:15:17.823Z,74.95
2023-02-17T16:17:45.046Z,10.02
2023-02-17T16:20:16.641Z,33.65
2023-02-17T16:22:44.349Z,29.83
2023-02-17T16:25:11.639Z,18.95
2023-02-17T16:27:38.804Z,23.27
2023-02-17T16:30:26.198Z,8.82
2023-02-17T16:32:53.743Z,11.50
2023-02-17T16:35:22.129Z,15.05
2023-02-17T16:37:53.338Z,16.38
2023-02-17T16:40:20.594Z,15.93
2023-02-17T16:42:47.710Z,15.27
2023-02-17T16:45:15.649Z,9.13
2023-02-17T16:47:44.575Z,14.00
2023-02-17T16:50:12.252Z,10.30
2023-02-17T16:52:39.441Z,14.43
2023-02-17T16:55:06.845Z,12.23
2023-02-17T16:57:34.877Z,12.38
2023-02-17T17:00:02.049Z,9.50
2023-02-17T17:02:29.278Z,14.75
2023-02-17T17:04:56.422Z,20.58
2023-02-17T17:07:23.577Z,18.95
2023-02-17T17:10:14.869Z,22.52
2023-02-17T17:12:37.784Z,12.07
2023-02-17T17:15:05.016Z,14.77
2023-02-17T17:17:32.549Z,6.35
2023-02-17T17:19:59.696Z,15.07
2023-02-17T17:22:26.827Z,11.80
2023-02-17T17:24:53.954Z,12.73
2023-02-17T17:27:21.102Z,10.80
2023-02-17T17:29:48.222Z,24.98
2023-02-17T17:32:15.520Z,8.52
2023-02-17T17:34:42.747Z,8.93
2023-02-17T17:37:10.398Z,6.43
2023-02-17T17:39:37.630Z,9.00
2023-02-17T17:42:04.941Z,5.65
2023-02-17T17:44:33.253Z,9.63
2023-02-17T17:47:00.358Z,13.15
2023-02-17T17:49:27.496Z,14.45
2023-02-17T17:51:54.602Z,6.18
2023-02-17T17:54:21.745Z,11.82
2023-02-17T17:56:48.907Z,15.82
2023-02-17T17:59:16.001Z,6.18
2023-02-17T18:01:45.631Z,17.05
2023-02-17T18:04:13.114Z,5.57
2023-02-17T18:06:40.659Z,9.07
2023-02-17T18:09:08.192Z,25.90
2023-02-17T18:11:35.705Z,10.05
2023-02-17T18:14:03.531Z,10.02
2023-02-17T18:16:32.225Z,5.95
2023-02-17T18:19:01.065Z,27.63
2023-02-17T18:21:28.222Z,5.28
2023-02-17T18:23:55.460Z,42.30
2023-02-17T18:26:22.759Z,14.20
2023-02-17T18:28:50.028Z,22.75
2023-02-17T18:31:19.280Z,4.80
2023-02-17T18:33:49.270Z,4.43
2023-02-17T18:36:17.731Z,10.38
2023-02-17T18:38:45.083Z,37.60
2023-02-17T18:41:22.228Z,4.38
2023-02-17T18:43:49.423Z,15.50
2023-02-17T18:46:16.689Z,10.73
2023-02-17T18:48:44.025Z,10.15
2023-02-17T18:51:11.551Z,18.02
2023-02-17T18:53:38.783Z,18.85
2023-02-17T18:56:10.548Z,9.85
2023-02-17T18:58:37.644Z,12.20
2023-02-17T19:01:04.862Z,12.88
2023-02-17T19:03:32.023Z,6.63
2023-02-17T19:05:59.135Z,9.55
2023-02-17T19:08:26.341Z,8.50
2023-02-17T19:10:53.733Z,10.13
2023-02-17T19:13:20.931Z,8.23
2023-02-17T19:15:48.062Z,8.30
2023-02-17T19:18:15.392Z,8.98
2023-02-17T19:20:44.076Z,15.98
2023-02-17T19:23:11.237Z,9.95
2023-02-17T19:25:38.974Z,9.55
2023-02-17T19:28:06.170Z,6.40
2023-02-17T19:30:33.384Z,10.43
2023-02-17T19:33:00.623Z,25.00
2023-02-17T19:35:27.951Z,9.88
2023-02-17T19:37:55.053Z,17.73
2023-02-17T19:40:22.328Z,21.33
2023-02-17T19:42:49.541Z,15.98
2023-02-17T19:45:16.853Z,10.68
2023-02-17T19:47:44.088Z,25.88
2023-02-17T19:50:11.317Z,22.98
2023-02-17T19:52:38.597Z,20.83
2023-02-17T19:55:07.429Z,19.77
2023-02-17T19:57:34.667Z,24.40
2023-02-17T20:00:01.865Z,15.15
2023-02-17T20:02:29.106Z,19.20
2023-02-17T20:04:56.319Z,13.27
2023-02-17T20:07:24.023Z,15.23
2023-02-17T20:09:51.280Z,13.00
2023-02-17T20:12:18.537Z,7.47
2023-02-17T20:14:45.895Z,12.15
2023-02-17T20:17:13.168Z,14.77
2023-02-17T20:19:40.287Z,11.27
2023-02-17T20:22:07.883Z,8.73
2023-02-17T20:24:35.513Z,13.13
2023-02-17T20:27:02.657Z,16.02
2023-02-17T20:29:29.860Z,32.00
2023-02-17T20:31:57.196Z,24.38
2023-02-17T20:34:27.433Z,25.58
2023-02-17T20:36:55.138Z,14.73
2023-02-17T20:39:23.053Z,14.90
2023-02-17T20:41:50.224Z,14.82
2023-02-17T20:44:18.120Z,14.40
2023-02-17T20:46:45.801Z,15.15
2023-02-17T20:49:13.776Z,26.17
2023-02-17T20:51:40.930Z,12.85
2023-02-17T20:54:08.258Z,30.52
2023-02-17T20:56:36.105Z,95.38
2023-02-17T20:59:04.689Z,34.47
2023-02-17T21:01:32.205Z,16.80
2023-02-17T21:03:59.368Z,18.75
2023-02-17T21:06:27.613Z,11.30
2023-02-17T21:08:55.672Z,10.90
2023-02-17T21:11:22.806Z,11.45
2023-02-17T21:13:50.099Z,36.58
2023-02-17T21:16:18.053Z,14.15
2023-02-17T21:18:47.146Z,42.92
2023-02-17T21:21:14.633Z,32.20
2023-02-17T21:23:41.792Z,96.75
2023-02-17T21:26:09.735Z,18.08
2023-02-17T21:28:36.930Z,41.95
2023-02-17T21:31:04.440Z,17.38
2023-02-17T21:33:31.604Z,35.45
2023-02-17T21:35:58.736Z,13.98
2023-02-17T21:38:25.860Z,14.55
2023-02-17T21:40:52.990Z,13.25
2023-02-17T21:43:38.895Z,12.98
2023-02-17T21:46:09.422Z,15.13
2023-02-17T21:48:37.877Z,13.05
2023-02-17T21:51:08.583Z,10.23
2023-02-17T21:53:35.934Z,14.23
2023-02-17T21:56:03.110Z,11.23
2023-02-17T21:58:30.275Z,11.93
2023-02-17T22:00:57.380Z,11.80
2023-02-17T22:03:24.493Z,9.45
2023-02-17T22:05:51.691Z,11.25
2023-02-17T22:08:18.840Z,8.32
2023-02-17T22:10:45.979Z,9.95
2023-02-17T22:13:13.095Z,12.20
2023-02-17T22:15:40.295Z,13.07
2023-02-17T22:18:07.438Z,8.50
2023-02-17T22:20:35.675Z,9.43
2023-02-17T22:23:02.820Z,10.95
2023-02-17T22:25:31.197Z,12.75
2023-02-17T22:27:58.342Z,7.72
2023-02-17T22:30:25.587Z,8.90
2023-02-17T22:32:52.717Z,9.43
2023-02-17T22:35:20.986Z,10.73
2023-02-17T22:37:48.120Z,9.95
2023-02-17T22:40:15.261Z,7.82
2023-02-17T22:42:42.382Z,8.98
2023-02-17T22:45:09.602Z,11.23
2023-02-17T22:47:36.697Z,11.20
2023-02-17T22:50:04.057Z,10.93
2023-02-17T22:52:31.173Z,8.75
2023-02-17T22:54:58.354Z,9.10
2023-02-17T22:57:25.499Z,7.95
2023-02-17T22:59:52.673Z,8.05
2023-02-17T23:02:19.769Z,7.13
2023-02-17T23:04:47.954Z,9.27
2023-02-17T23:07:15.154Z,6.93
2023-02-17T23:09:42.266Z,7.82
2023-02-17T23:12:09.394Z,4.93
2023-02-17T23:14:37.540Z,7.18
2023-02-17T23:17:05.748Z,7.53
2023-02-17T23:19:32.933Z,5.45
2023-02-17T23:22:01.325Z,10.10
2023-02-17T23:24:28.605Z,6.18
2023-02-17T23:26:56.207Z,8.60
2023-02-17T23:29:23.399Z,8.07
2023-02-17T23:31:50.604Z,5.65
2023-02-17T23:34:17.768Z,9.43
2023-02-17T23:36:45.274Z,5.65
2023-02-17T23:39:12.432Z,5.65
2023-02-17T23:41:39.605Z,6.80
2023-02-17T23:44:07.678Z,7.85
2023-02-17T23:46:35.104Z,8.77
2023-02-17T23:49:02.321Z,9.50
2023-02-17T23:51:29.478Z,11.50
2023-02-17T23:53:56.582Z,13.00
2023-02-17T23:56:28.030Z,22.98
2023-02-17T23:58:55.141Z,8.15
